sensor_id;sensor_type;location;lat;lon;timestamp;temperature;humidity
1614;DHT22;800;48.824;9.346;2023-03-31T00:01:34;17.60;49.70
1614;DHT22;800;48.824;9.346;2023-03-31T00:04:00;17.70;49.70
1614;DHT22;800;48.824;9.346;2023-03-31T00:06:34;17.70;49.60
1614;DHT22;800;48.824;9.346;2023-03-31T00:09:08;17.80;49.60
1614;DHT22;800;48.824;9.346;2023-03-31T00:11:34;17.90;49.50
1614;DHT22;800;48.824;9.346;2023-03-31T00:14:00;17.90;49.40
1614;DHT22;800;48.824;9.346;2023-03-31T00:16:26;17.90;49.40
1614;DHT22;800;48.824;9.346;2023-03-31T00:18:52;18.00;49.40
1614;DHT22;800;48.824;9.346;2023-03-31T00:21:19;18.00;49.30
1614;DHT22;800;48.824;9.346;2023-03-31T00:24:03;17.90;49.30
1614;DHT22;800;48.824;9.346;2023-03-31T00:26:29;17.90;49.40
1614;DHT22;800;48.824;9.346;2023-03-31T00:28:56;17.90;49.40
1614;DHT22;800;48.824;9.346;2023-03-31T00:31:22;17.80;49.50
1614;DHT22;800;48.824;9.346;2023-03-31T00:33:48;17.80;50.30
1614;DHT22;800;48.824;9.346;2023-03-31T00:36:14;17.80;49.70
1614;DHT22;800;48.824;9.346;2023-03-31T00:38:46;17.60;49.80
1614;DHT22;800;48.824;9.346;2023-03-31T00:41:12;17.50;49.80
1614;DHT22;800;48.824;9.346;2023-03-31T00:43:38;17.40;50.00
1614;DHT22;800;48.824;9.346;2023-03-31T00:46:14;17.40;50.10
1614;DHT22;800;48.824;9.346;2023-03-31T00:48:53;17.40;50.30
1614;DHT22;800;48.824;9.346;2023-03-31T00:51:24;17.40;50.20
1614;DHT22;800;48.824;9.346;2023-03-31T00:54:04;17.40;50.40
1614;DHT22;800;48.824;9.346;2023-03-31T00:56:36;17.40;50.40
1614;DHT22;800;48.824;9.346;2023-03-31T00:59:08;17.40;50.40
1614;DHT22;800;48.824;9.346;2023-03-31T01:01:35;17.40;50.30
1614;DHT22;800;48.824;9.346;2023-03-31T01:04:05;17.20;50.50
1614;DHT22;800;48.824;9.346;2023-03-31T01:06:32;17.20;50.60
1614;DHT22;800;48.824;9.346;2023-03-31T01:08:58;17.20;50.80
1614;DHT22;800;48.824;9.346;2023-03-31T01:11:26;17.10;51.00
1614;DHT22;800;48.824;9.346;2023-03-31T01:13:55;16.90;51.40
1614;DHT22;800;48.824;9.346;2023-03-31T01:16:22;16.90;51.50
1614;DHT22;800;48.824;9.346;2023-03-31T01:18:48;16.90;51.50
1614;DHT22;800;48.824;9.346;2023-03-31T01:43:25;17.40;50.90
1614;DHT22;800;48.824;9.346;2023-03-31T01:45:59;17.50;50.20
1614;DHT22;800;48.824;9.346;2023-03-31T01:51:21;17.60;50.00
1614;DHT22;800;48.824;9.346;2023-03-31T01:59:01;17.40;50.70
1614;DHT22;800;48.824;9.346;2023-03-31T02:01:34;17.30;50.90
1614;DHT22;800;48.824;9.346;2023-03-31T02:06:38;17.10;51.30
1614;DHT22;800;48.824;9.346;2023-03-31T02:09:15;17.10;51.50
1614;DHT22;800;48.824;9.346;2023-03-31T02:11:42;16.90;52.00
1614;DHT22;800;48.824;9.346;2023-03-31T02:14:11;16.40;51.90
1614;DHT22;800;48.824;9.346;2023-03-31T02:16:44;16.00;52.30
1614;DHT22;800;48.824;9.346;2023-03-31T02:19:15;16.00;52.60
1614;DHT22;800;48.824;9.346;2023-03-31T02:21:45;15.90;51.90
1614;DHT22;800;48.824;9.346;2023-03-31T02:24:13;15.80;52.40
1614;DHT22;800;48.824;9.346;2023-03-31T02:29:37;15.70;52.70
1614;DHT22;800;48.824;9.346;2023-03-31T02:34:36;16.00;52.90
1614;DHT22;800;48.824;9.346;2023-03-31T02:37:02;16.10;53.20
1614;DHT22;800;48.824;9.346;2023-03-31T02:39:32;16.20;53.50
1614;DHT22;800;48.824;9.346;2023-03-31T02:41:58;16.30;53.50
1614;DHT22;800;48.824;9.346;2023-03-31T02:44:26;16.30;53.40
1614;DHT22;800;48.824;9.346;2023-03-31T02:46:52;16.00;54.20
1614;DHT22;800;48.824;9.346;2023-03-31T02:49:18;15.80;54.70
1614;DHT22;800;48.824;9.346;2023-03-31T02:51:54;15.90;54.80
1614;DHT22;800;48.824;9.346;2023-03-31T03:11:07;16.80;53.50
1614;DHT22;800;48.824;9.346;2023-03-31T03:13:46;17.00;53.20
1614;DHT22;800;48.824;9.346;2023-03-31T03:16:23;17.10;53.20
1614;DHT22;800;48.824;9.346;2023-03-31T03:19:04;17.10;52.90
1614;DHT22;800;48.824;9.346;2023-03-31T03:21:31;16.70;53.00
1614;DHT22;800;48.824;9.346;2023-03-31T03:23:57;16.60;54.00
1614;DHT22;800;48.824;9.346;2023-03-31T03:26:24;16.70;53.80
1614;DHT22;800;48.824;9.346;2023-03-31T03:28:52;16.80;53.80
1614;DHT22;800;48.824;9.346;2023-03-31T03:31:19;16.70;54.10
1614;DHT22;800;48.824;9.346;2023-03-31T03:33:45;16.80;54.10
1614;DHT22;800;48.824;9.346;2023-03-31T03:36:11;16.70;54.30
1614;DHT22;800;48.824;9.346;2023-03-31T03:38:36;16.60;54.50
1614;DHT22;800;48.824;9.346;2023-03-31T03:41:02;16.80;54.30
1614;DHT22;800;48.824;9.346;2023-03-31T03:43:28;16.70;54.10
1614;DHT22;800;48.824;9.346;2023-03-31T03:45:54;16.70;54.20
1614;DHT22;800;48.824;9.346;2023-03-31T03:48:20;16.60;54.10
1614;DHT22;800;48.824;9.346;2023-03-31T03:50:46;16.70;54.10
1614;DHT22;800;48.824;9.346;2023-03-31T03:53:12;16.60;54.30
1614;DHT22;800;48.824;9.346;2023-03-31T03:55:38;16.60;54.20
1614;DHT22;800;48.824;9.346;2023-03-31T03:58:03;16.70;54.10
1614;DHT22;800;48.824;9.346;2023-03-31T04:00:29;16.80;53.90
1614;DHT22;800;48.824;9.346;2023-03-31T04:02:55;16.90;53.70
1614;DHT22;800;48.824;9.346;2023-03-31T04:05:21;16.80;53.60
1614;DHT22;800;48.824;9.346;2023-03-31T04:07:47;16.80;53.70
1614;DHT22;800;48.824;9.346;2023-03-31T04:10:12;16.70;54.00
1614;DHT22;800;48.824;9.346;2023-03-31T04:12:38;16.60;54.30
1614;DHT22;800;48.824;9.346;2023-03-31T04:15:04;16.50;54.50
1614;DHT22;800;48.824;9.346;2023-03-31T04:17:30;16.30;54.60
1614;DHT22;800;48.824;9.346;2023-03-31T04:20:04;15.90;55.70
1614;DHT22;800;48.824;9.346;2023-03-31T04:22:31;15.80;56.00
1614;DHT22;800;48.824;9.346;2023-03-31T04:25:04;15.30;57.00
1614;DHT22;800;48.824;9.346;2023-03-31T04:27:34;15.00;58.30
1614;DHT22;800;48.824;9.346;2023-03-31T04:30:00;15.10;58.70
1614;DHT22;800;48.824;9.346;2023-03-31T04:32:26;15.20;57.60
1614;DHT22;800;48.824;9.346;2023-03-31T04:34:52;15.20;57.90
1614;DHT22;800;48.824;9.346;2023-03-31T04:37:28;15.10;57.90
1614;DHT22;800;48.824;9.346;2023-03-31T04:39:59;15.00;58.50
1614;DHT22;800;48.824;9.346;2023-03-31T04:42:32;15.00;58.40
1614;DHT22;800;48.824;9.346;2023-03-31T04:44:58;15.00;58.60
1614;DHT22;800;48.824;9.346;2023-03-31T04:47:23;15.10;58.30
1614;DHT22;800;48.824;9.346;2023-03-31T04:49:49;15.10;57.90
1614;DHT22;800;48.824;9.346;2023-03-31T04:52:15;15.10;58.20
1614;DHT22;800;48.824;9.346;2023-03-31T04:54:40;15.30;58.10
1614;DHT22;800;48.824;9.346;2023-03-31T04:57:06;15.60;57.60
1614;DHT22;800;48.824;9.346;2023-03-31T04:59:31;15.70;57.10
1614;DHT22;800;48.824;9.346;2023-03-31T05:01:57;15.60;57.20
1614;DHT22;800;48.824;9.346;2023-03-31T05:04:23;15.60;57.20
1614;DHT22;800;48.824;9.346;2023-03-31T05:06:48;15.70;57.00
1614;DHT22;800;48.824;9.346;2023-03-31T05:09:14;15.40;57.60
1614;DHT22;800;48.824;9.346;2023-03-31T05:11:40;15.20;58.10
1614;DHT22;800;48.824;9.346;2023-03-31T05:14:06;15.10;58.30
1614;DHT22;800;48.824;9.346;2023-03-31T05:16:31;15.10;58.50
1614;DHT22;800;48.824;9.346;2023-03-31T05:18:57;14.80;58.90
1614;DHT22;800;48.824;9.346;2023-03-31T05:21:22;14.80;59.30
1614;DHT22;800;48.824;9.346;2023-03-31T05:23:48;15.00;59.10
1614;DHT22;800;48.824;9.346;2023-03-31T05:26:14;15.00;58.90
1614;DHT22;800;48.824;9.346;2023-03-31T05:28:40;15.10;59.30
1614;DHT22;800;48.824;9.346;2023-03-31T05:31:07;15.50;59.00
1614;DHT22;800;48.824;9.346;2023-03-31T05:33:33;15.90;58.70
1614;DHT22;800;48.824;9.346;2023-03-31T05:36:05;16.10;58.50
1614;DHT22;800;48.824;9.346;2023-03-31T05:38:30;16.30;58.30
1614;DHT22;800;48.824;9.346;2023-03-31T05:40:57;16.00;58.60
1614;DHT22;800;48.824;9.346;2023-03-31T05:43:23;16.10;59.00
1614;DHT22;800;48.824;9.346;2023-03-31T05:45:49;16.20;59.20
1614;DHT22;800;48.824;9.346;2023-03-31T05:48:14;16.30;59.40
1614;DHT22;800;48.824;9.346;2023-03-31T05:50:40;16.40;59.20
1614;DHT22;800;48.824;9.346;2023-03-31T05:53:07;16.40;59.30
1614;DHT22;800;48.824;9.346;2023-03-31T05:55:35;16.50;59.50
1614;DHT22;800;48.824;9.346;2023-03-31T05:58:00;16.50;59.70
1614;DHT22;800;48.824;9.346;2023-03-31T06:00:26;16.40;60.10
1614;DHT22;800;48.824;9.346;2023-03-31T06:02:51;16.20;61.40
1614;DHT22;800;48.824;9.346;2023-03-31T06:05:18;16.00;61.80
1614;DHT22;800;48.824;9.346;2023-03-31T06:07:44;16.10;62.00
1614;DHT22;800;48.824;9.346;2023-03-31T06:10:09;16.20;62.00
1614;DHT22;800;48.824;9.346;2023-03-31T06:12:35;16.10;62.40
1614;DHT22;800;48.824;9.346;2023-03-31T06:15:02;16.10;62.40
1614;DHT22;800;48.824;9.346;2023-03-31T06:17:28;16.10;62.50
1614;DHT22;800;48.824;9.346;2023-03-31T06:19:53;16.10;62.60
1614;DHT22;800;48.824;9.346;2023-03-31T06:22:19;16.00;62.90
1614;DHT22;800;48.824;9.346;2023-03-31T06:24:45;16.10;62.90
1614;DHT22;800;48.824;9.346;2023-03-31T06:27:10;16.00;62.80
1614;DHT22;800;48.824;9.346;2023-03-31T06:29:36;15.80;63.50
1614;DHT22;800;48.824;9.346;2023-03-31T06:32:02;15.90;64.00
1614;DHT22;800;48.824;9.346;2023-03-31T06:34:29;15.80;64.10
1614;DHT22;800;48.824;9.346;2023-03-31T06:36:54;15.90;64.20
1614;DHT22;800;48.824;9.346;2023-03-31T06:39:21;16.00;63.80
1614;DHT22;800;48.824;9.346;2023-03-31T06:41:46;16.00;63.40
1614;DHT22;800;48.824;9.346;2023-03-31T06:44:12;16.10;63.50
1614;DHT22;800;48.824;9.346;2023-03-31T06:46:41;16.00;63.50
1614;DHT22;800;48.824;9.346;2023-03-31T06:49:06;15.80;63.60
1614;DHT22;800;48.824;9.346;2023-03-31T06:51:32;15.80;65.00
1614;DHT22;800;48.824;9.346;2023-03-31T06:53:58;15.80;65.00
1614;DHT22;800;48.824;9.346;2023-03-31T06:56:23;15.70;65.40
1614;DHT22;800;48.824;9.346;2023-03-31T06:58:49;15.70;66.20
1614;DHT22;800;48.824;9.346;2023-03-31T07:01:14;15.30;67.60
1614;DHT22;800;48.824;9.346;2023-03-31T07:03:40;15.40;68.50
1614;DHT22;800;48.824;9.346;2023-03-31T07:06:06;15.40;68.80
1614;DHT22;800;48.824;9.346;2023-03-31T07:08:32;15.50;68.20
1614;DHT22;800;48.824;9.346;2023-03-31T07:10:59;15.60;67.90
1614;DHT22;800;48.824;9.346;2023-03-31T07:13:26;15.50;68.10
1614;DHT22;800;48.824;9.346;2023-03-31T07:15:52;15.40;68.20
1614;DHT22;800;48.824;9.346;2023-03-31T07:18:18;15.10;69.30
1614;DHT22;800;48.824;9.346;2023-03-31T07:20:47;14.40;70.60
1614;DHT22;800;48.824;9.346;2023-03-31T07:23:14;13.60;73.80
1614;DHT22;800;48.824;9.346;2023-03-31T07:25:40;13.60;75.90
1614;DHT22;800;48.824;9.346;2023-03-31T07:28:05;14.00;74.80
1614;DHT22;800;48.824;9.346;2023-03-31T07:30:31;14.10;74.80
1614;DHT22;800;48.824;9.346;2023-03-31T07:32:57;14.30;73.40
1614;DHT22;800;48.824;9.346;2023-03-31T07:35:23;14.40;72.30
1614;DHT22;800;48.824;9.346;2023-03-31T07:37:49;14.10;71.90
1614;DHT22;800;48.824;9.346;2023-03-31T07:40:21;14.10;73.50
1614;DHT22;800;48.824;9.346;2023-03-31T07:42:47;13.90;72.30
1614;DHT22;800;48.824;9.346;2023-03-31T07:45:14;14.00;72.70
1614;DHT22;800;48.824;9.346;2023-03-31T07:47:41;13.90;72.00
1614;DHT22;800;48.824;9.346;2023-03-31T07:50:08;14.10;72.70
1614;DHT22;800;48.824;9.346;2023-03-31T07:52:33;14.10;71.20
1614;DHT22;800;48.824;9.346;2023-03-31T07:54:59;14.20;69.80
1614;DHT22;800;48.824;9.346;2023-03-31T07:57:25;14.20;70.40
1614;DHT22;800;48.824;9.346;2023-03-31T07:59:50;14.50;69.60
1614;DHT22;800;48.824;9.346;2023-03-31T08:02:16;14.60;67.80
1614;DHT22;800;48.824;9.346;2023-03-31T08:04:43;14.80;66.40
1614;DHT22;800;48.824;9.346;2023-03-31T08:07:10;14.80;65.40
1614;DHT22;800;48.824;9.346;2023-03-31T08:09:38;14.70;64.80
1614;DHT22;800;48.824;9.346;2023-03-31T08:12:04;14.80;66.20
1614;DHT22;800;48.824;9.346;2023-03-31T08:14:30;14.80;63.10
1614;DHT22;800;48.824;9.346;2023-03-31T08:16:56;14.90;63.00
1614;DHT22;800;48.824;9.346;2023-03-31T08:19:22;14.90;62.70
1614;DHT22;800;48.824;9.346;2023-03-31T08:21:48;15.00;62.80
1614;DHT22;800;48.824;9.346;2023-03-31T08:24:15;15.20;63.20
1614;DHT22;800;48.824;9.346;2023-03-31T08:26:41;15.40;61.60
1614;DHT22;800;48.824;9.346;2023-03-31T08:29:06;15.70;61.80
1614;DHT22;800;48.824;9.346;2023-03-31T08:31:32;15.70;60.30
1614;DHT22;800;48.824;9.346;2023-03-31T08:33:58;15.70;61.00
1614;DHT22;800;48.824;9.346;2023-03-31T08:36:24;15.90;60.80
1614;DHT22;800;48.824;9.346;2023-03-31T08:38:50;16.00;60.70
1614;DHT22;800;48.824;9.346;2023-03-31T08:46:55;16.80;59.30
1614;DHT22;800;48.824;9.346;2023-03-31T08:49:22;17.00;58.70
1614;DHT22;800;48.824;9.346;2023-03-31T08:51:55;17.10;58.90
1614;DHT22;800;48.824;9.346;2023-03-31T08:54:50;17.20;59.20
1614;DHT22;800;48.824;9.346;2023-03-31T08:57:26;17.30;57.70
1614;DHT22;800;48.824;9.346;2023-03-31T08:59:55;17.70;58.20
1614;DHT22;800;48.824;9.346;2023-03-31T09:02:49;17.60;56.70
1614;DHT22;800;48.824;9.346;2023-03-31T09:13:56;17.80;56.50
1614;DHT22;800;48.824;9.346;2023-03-31T09:16:30;17.80;56.60
1614;DHT22;800;48.824;9.346;2023-03-31T09:19:01;18.10;56.00
1614;DHT22;800;48.824;9.346;2023-03-31T09:21:37;18.10;54.90
1614;DHT22;800;48.824;9.346;2023-03-31T09:24:13;17.90;54.00
1614;DHT22;800;48.824;9.346;2023-03-31T09:32:17;17.80;54.20
1614;DHT22;800;48.824;9.346;2023-03-31T09:34:45;17.90;54.00
1614;DHT22;800;48.824;9.346;2023-03-31T09:37:11;17.70;52.90
1614;DHT22;800;48.824;9.346;2023-03-31T09:39:38;18.10;53.80
1614;DHT22;800;48.824;9.346;2023-03-31T09:42:04;18.30;53.30
1614;DHT22;800;48.824;9.346;2023-03-31T09:44:34;18.00;50.20
1614;DHT22;800;48.824;9.346;2023-03-31T09:47:01;18.00;50.70
1614;DHT22;800;48.824;9.346;2023-03-31T09:49:31;17.80;50.10
1614;DHT22;800;48.824;9.346;2023-03-31T09:52:31;17.90;51.20
1614;DHT22;800;48.824;9.346;2023-03-31T09:55:03;17.70;50.10
1614;DHT22;800;48.824;9.346;2023-03-31T09:57:34;18.00;50.40
1614;DHT22;800;48.824;9.346;2023-03-31T10:00:26;18.00;50.40
1614;DHT22;800;48.824;9.346;2023-03-31T10:02:56;17.70;49.80
1614;DHT22;800;48.824;9.346;2023-03-31T10:05:37;17.60;50.70
1614;DHT22;800;48.824;9.346;2023-03-31T10:10:36;17.80;50.20
1614;DHT22;800;48.824;9.346;2023-03-31T10:13:08;17.80;48.70
1614;DHT22;800;48.824;9.346;2023-03-31T10:15:38;17.80;48.60
1614;DHT22;800;48.824;9.346;2023-03-31T10:18:04;17.80;47.70
1614;DHT22;800;48.824;9.346;2023-03-31T10:20:37;17.70;47.10
1614;DHT22;800;48.824;9.346;2023-03-31T10:23:14;17.90;47.70
1614;DHT22;800;48.824;9.346;2023-03-31T10:25:41;17.90;48.10
1614;DHT22;800;48.824;9.346;2023-03-31T10:28:11;18.30;47.40
1614;DHT22;800;48.824;9.346;2023-03-31T10:30:46;18.20;45.90
1614;DHT22;800;48.824;9.346;2023-03-31T10:33:15;18.30;46.40
1614;DHT22;800;48.824;9.346;2023-03-31T10:35:42;18.20;45.60
1614;DHT22;800;48.824;9.346;2023-03-31T10:38:23;18.30;47.00
1614;DHT22;800;48.824;9.346;2023-03-31T10:40:51;18.60;46.30
1614;DHT22;800;48.824;9.346;2023-03-31T10:43:23;19.00;46.00
1614;DHT22;800;48.824;9.346;2023-03-31T10:45:51;18.70;43.80
1614;DHT22;800;48.824;9.346;2023-03-31T10:48:33;18.80;44.70
1614;DHT22;800;48.824;9.346;2023-03-31T10:51:04;18.70;43.90
1614;DHT22;800;48.824;9.346;2023-03-31T10:53:59;18.70;44.00
1614;DHT22;800;48.824;9.346;2023-03-31T10:56:41;18.80;44.00
1614;DHT22;800;48.824;9.346;2023-03-31T11:12:49;19.50;41.20
1614;DHT22;800;48.824;9.346;2023-03-31T11:23:40;19.30;41.70
1614;DHT22;800;48.824;9.346;2023-03-31T11:26:12;19.00;41.80
1614;DHT22;800;48.824;9.346;2023-03-31T11:34:15;17.10;53.70
1614;DHT22;800;48.824;9.346;2023-03-31T11:42:15;14.40;64.80
1614;DHT22;800;48.824;9.346;2023-03-31T11:44:48;14.00;63.20
1614;DHT22;800;48.824;9.346;2023-03-31T11:47:27;14.10;63.20
1614;DHT22;800;48.824;9.346;2023-03-31T11:50:02;14.10;63.30
1614;DHT22;800;48.824;9.346;2023-03-31T11:52:31;14.20;63.80
1614;DHT22;800;48.824;9.346;2023-03-31T11:57:36;14.10;62.00
1614;DHT22;800;48.824;9.346;2023-03-31T12:00:20;14.00;60.70
1614;DHT22;800;48.824;9.346;2023-03-31T12:05:19;14.10;61.90
1614;DHT22;800;48.824;9.346;2023-03-31T12:08:00;14.30;60.90
1614;DHT22;800;48.824;9.346;2023-03-31T12:10:38;14.40;60.20
1614;DHT22;800;48.824;9.346;2023-03-31T12:16:13;14.40;58.60
1614;DHT22;800;48.824;9.346;2023-03-31T12:19:04;14.50;59.40
1614;DHT22;800;48.824;9.346;2023-03-31T12:21:32;14.80;59.60
1614;DHT22;800;48.824;9.346;2023-03-31T12:23:58;15.30;62.70
1614;DHT22;800;48.824;9.346;2023-03-31T12:29:30;16.30;60.30
1614;DHT22;800;48.824;9.346;2023-03-31T12:31:58;16.50;58.60
1614;DHT22;800;48.824;9.346;2023-03-31T12:34:26;16.70;56.50
1614;DHT22;800;48.824;9.346;2023-03-31T12:40:17;16.20;54.40
1614;DHT22;800;48.824;9.346;2023-03-31T12:45:34;15.70;55.40
1614;DHT22;800;48.824;9.346;2023-03-31T12:48:19;16.00;55.20
1614;DHT22;800;48.824;9.346;2023-03-31T12:51:16;16.30;55.20
1614;DHT22;800;48.824;9.346;2023-03-31T12:59:36;16.90;51.90
1614;DHT22;800;48.824;9.346;2023-03-31T13:02:21;17.10;52.20
1614;DHT22;800;48.824;9.346;2023-03-31T13:04:47;17.30;51.00
1614;DHT22;800;48.824;9.346;2023-03-31T13:10:25;17.20;50.50
1614;DHT22;800;48.824;9.346;2023-03-31T13:15:29;17.60;50.30
1614;DHT22;800;48.824;9.346;2023-03-31T13:18:00;17.70;49.70
1614;DHT22;800;48.824;9.346;2023-03-31T13:20:37;17.70;49.40
1614;DHT22;800;48.824;9.346;2023-03-31T13:25:36;17.50;49.60
1614;DHT22;800;48.824;9.346;2023-03-31T13:28:15;17.00;49.70
1614;DHT22;800;48.824;9.346;2023-03-31T13:33:14;16.30;52.40
1614;DHT22;800;48.824;9.346;2023-03-31T13:35:49;16.00;51.60
1614;DHT22;800;48.824;9.346;2023-03-31T13:46:54;15.30;53.30
1614;DHT22;800;48.824;9.346;2023-03-31T13:49:53;15.10;53.70
1614;DHT22;800;48.824;9.346;2023-03-31T13:52:56;15.40;54.40
1614;DHT22;800;48.824;9.346;2023-03-31T13:59:17;15.10;53.60
1614;DHT22;800;48.824;9.346;2023-03-31T14:07:09;13.80;55.30
1614;DHT22;800;48.824;9.346;2023-03-31T14:09:40;13.60;55.50
1614;DHT22;800;48.824;9.346;2023-03-31T14:12:43;13.80;55.90
1614;DHT22;800;48.824;9.346;2023-03-31T14:15:18;14.10;55.70
1614;DHT22;800;48.824;9.346;2023-03-31T14:17:44;13.90;55.30
1614;DHT22;800;48.824;9.346;2023-03-31T14:20:21;14.10;56.80
1614;DHT22;800;48.824;9.346;2023-03-31T14:31:40;14.90;54.00
1614;DHT22;800;48.824;9.346;2023-03-31T14:37:13;15.20;52.00
1614;DHT22;800;48.824;9.346;2023-03-31T14:39:50;15.40;51.90
1614;DHT22;800;48.824;9.346;2023-03-31T14:45:00;15.40;51.90
1614;DHT22;800;48.824;9.346;2023-03-31T14:47:27;15.50;51.90
1614;DHT22;800;48.824;9.346;2023-03-31T14:50:15;15.40;51.70
1614;DHT22;800;48.824;9.346;2023-03-31T14:52:49;15.60;52.10
1614;DHT22;800;48.824;9.346;2023-03-31T14:55:20;15.60;51.50
1614;DHT22;800;48.824;9.346;2023-03-31T14:57:48;15.50;52.00
1614;DHT22;800;48.824;9.346;2023-03-31T15:00:25;15.20;52.10
1614;DHT22;800;48.824;9.346;2023-03-31T15:02:51;15.40;52.10
1614;DHT22;800;48.824;9.346;2023-03-31T15:05:36;15.60;52.70
1614;DHT22;800;48.824;9.346;2023-03-31T15:08:05;15.90;52.10
1614;DHT22;800;48.824;9.346;2023-03-31T15:10:37;15.90;52.10
1614;DHT22;800;48.824;9.346;2023-03-31T15:13:29;16.20;52.10
1614;DHT22;800;48.824;9.346;2023-03-31T15:15:56;16.00;52.30
1614;DHT22;800;48.824;9.346;2023-03-31T15:18:25;16.10;52.10
1614;DHT22;800;48.824;9.346;2023-03-31T15:20:51;15.90;52.60
1614;DHT22;800;48.824;9.346;2023-03-31T15:23:25;16.00;53.10
1614;DHT22;800;48.824;9.346;2023-03-31T15:26:01;16.00;52.60
1614;DHT22;800;48.824;9.346;2023-03-31T15:28:32;16.00;53.00
1614;DHT22;800;48.824;9.346;2023-03-31T15:31:00;16.20;52.60
1614;DHT22;800;48.824;9.346;2023-03-31T15:33:34;16.20;52.70
1614;DHT22;800;48.824;9.346;2023-03-31T15:36:06;16.30;51.70
1614;DHT22;800;48.824;9.346;2023-03-31T15:38:32;16.10;51.10
1614;DHT22;800;48.824;9.346;2023-03-31T15:40:59;16.20;52.40
1614;DHT22;800;48.824;9.346;2023-03-31T15:44:27;16.60;52.40
1614;DHT22;800;48.824;9.346;2023-03-31T15:46:38;17.00;51.60
1614;DHT22;800;48.824;9.346;2023-03-31T15:49:21;16.90;50.60
1614;DHT22;800;48.824;9.346;2023-03-31T15:51:49;16.60;50.30
1614;DHT22;800;48.824;9.346;2023-03-31T15:54:45;16.40;51.30
1614;DHT22;800;48.824;9.346;2023-03-31T15:57:14;16.40;51.50
1614;DHT22;800;48.824;9.346;2023-03-31T15:59:49;16.40;51.30
1614;DHT22;800;48.824;9.346;2023-03-31T16:02:19;16.40;52.00
1614;DHT22;800;48.824;9.346;2023-03-31T16:04:50;16.20;52.70
1614;DHT22;800;48.824;9.346;2023-03-31T16:07:24;16.10;53.60
1614;DHT22;800;48.824;9.346;2023-03-31T16:10:04;16.20;53.80
1614;DHT22;800;48.824;9.346;2023-03-31T16:12:38;16.50;53.60
1614;DHT22;800;48.824;9.346;2023-03-31T16:15:09;16.50;53.20
1614;DHT22;800;48.824;9.346;2023-03-31T16:17:51;16.60;53.20
1614;DHT22;800;48.824;9.346;2023-03-31T16:22:52;15.90;53.90
1614;DHT22;800;48.824;9.346;2023-03-31T16:25:21;16.00;53.40
1614;DHT22;800;48.824;9.346;2023-03-31T16:27:52;15.80;53.90
1614;DHT22;800;48.824;9.346;2023-03-31T16:30:22;15.80;54.20
1614;DHT22;800;48.824;9.346;2023-03-31T16:33:05;15.70;54.40
1614;DHT22;800;48.824;9.346;2023-03-31T16:35:38;15.70;54.50
1614;DHT22;800;48.824;9.346;2023-03-31T16:38:05;16.00;54.40
1614;DHT22;800;48.824;9.346;2023-03-31T16:40:38;15.90;53.70
1614;DHT22;800;48.824;9.346;2023-03-31T16:43:15;15.90;53.90
1614;DHT22;800;48.824;9.346;2023-03-31T16:45:46;15.30;52.10
1614;DHT22;800;48.824;9.346;2023-03-31T16:48:13;15.10;53.10
1614;DHT22;800;48.824;9.346;2023-03-31T16:50:40;14.90;53.80
1614;DHT22;800;48.824;9.346;2023-03-31T16:53:06;14.80;53.50
1614;DHT22;800;48.824;9.346;2023-03-31T16:55:33;15.00;53.70
1614;DHT22;800;48.824;9.346;2023-03-31T16:57:59;15.00;53.00
1614;DHT22;800;48.824;9.346;2023-03-31T17:00:31;15.00;53.00
1614;DHT22;800;48.824;9.346;2023-03-31T17:02:59;15.00;52.40
1614;DHT22;800;48.824;9.346;2023-03-31T17:05:26;15.10;52.50
1614;DHT22;800;48.824;9.346;2023-03-31T17:07:52;15.10;52.30
1614;DHT22;800;48.824;9.346;2023-03-31T17:10:18;15.10;52.30
1614;DHT22;800;48.824;9.346;2023-03-31T17:12:44;15.10;52.00
1614;DHT22;800;48.824;9.346;2023-03-31T17:15:10;15.20;51.90
1614;DHT22;800;48.824;9.346;2023-03-31T17:17:36;15.30;51.10
1614;DHT22;800;48.824;9.346;2023-03-31T17:20:03;15.10;51.00
1614;DHT22;800;48.824;9.346;2023-03-31T17:22:29;15.30;51.10
1614;DHT22;800;48.824;9.346;2023-03-31T17:24:54;15.20;50.80
1614;DHT22;800;48.824;9.346;2023-03-31T17:27:23;15.20;51.70
1614;DHT22;800;48.824;9.346;2023-03-31T17:29:49;15.20;52.20
1614;DHT22;800;48.824;9.346;2023-03-31T17:32:15;15.10;52.90
1614;DHT22;800;48.824;9.346;2023-03-31T17:34:42;15.10;53.10
1614;DHT22;800;48.824;9.346;2023-03-31T17:37:08;15.00;53.50
1614;DHT22;800;48.824;9.346;2023-03-31T17:39:33;15.00;53.90
1614;DHT22;800;48.824;9.346;2023-03-31T17:41:59;15.20;53.70
1614;DHT22;800;48.824;9.346;2023-03-31T17:44:25;15.50;53.00
1614;DHT22;800;48.824;9.346;2023-03-31T17:46:50;15.20;53.10
1614;DHT22;800;48.824;9.346;2023-03-31T17:49:16;15.20;53.70
1614;DHT22;800;48.824;9.346;2023-03-31T17:51:42;15.10;53.70
1614;DHT22;800;48.824;9.346;2023-03-31T17:54:09;15.00;54.00
1614;DHT22;800;48.824;9.346;2023-03-31T17:56:36;15.10;54.10
1614;DHT22;800;48.824;9.346;2023-03-31T17:59:02;15.00;54.30
1614;DHT22;800;48.824;9.346;2023-03-31T18:01:28;14.70;54.40
1614;DHT22;800;48.824;9.346;2023-03-31T18:03:57;14.70;55.30
1614;DHT22;800;48.824;9.346;2023-03-31T18:06:23;14.70;56.00
1614;DHT22;800;48.824;9.346;2023-03-31T18:08:49;14.50;58.40
1614;DHT22;800;48.824;9.346;2023-03-31T18:11:15;14.00;60.20
1614;DHT22;800;48.824;9.346;2023-03-31T18:13:41;14.20;63.40
1614;DHT22;800;48.824;9.346;2023-03-31T18:16:08;14.40;64.00
1614;DHT22;800;48.824;9.346;2023-03-31T18:18:34;14.50;63.80
1614;DHT22;800;48.824;9.346;2023-03-31T18:21:05;14.40;62.40
1614;DHT22;800;48.824;9.346;2023-03-31T18:23:32;14.10;62.90
1614;DHT22;800;48.824;9.346;2023-03-31T18:25:58;13.80;65.30
1614;DHT22;800;48.824;9.346;2023-03-31T18:28:24;13.90;65.80
1614;DHT22;800;48.824;9.346;2023-03-31T18:30:49;13.70;67.10
1614;DHT22;800;48.824;9.346;2023-03-31T18:33:15;13.80;67.30
1614;DHT22;800;48.824;9.346;2023-03-31T18:35:41;13.80;67.00
1614;DHT22;800;48.824;9.346;2023-03-31T18:38:07;14.10;66.40
1614;DHT22;800;48.824;9.346;2023-03-31T18:40:34;14.30;65.90
1614;DHT22;800;48.824;9.346;2023-03-31T18:43:00;14.50;64.90
1614;DHT22;800;48.824;9.346;2023-03-31T18:45:27;14.50;63.80
1614;DHT22;800;48.824;9.346;2023-03-31T18:47:52;14.80;63.00
1614;DHT22;800;48.824;9.346;2023-03-31T18:50:19;15.00;62.20
1614;DHT22;800;48.824;9.346;2023-03-31T18:52:45;15.00;61.80
1614;DHT22;800;48.824;9.346;2023-03-31T18:55:11;15.10;61.20
1614;DHT22;800;48.824;9.346;2023-03-31T18:57:37;15.10;60.80
1614;DHT22;800;48.824;9.346;2023-03-31T19:00:02;14.90;60.00
1614;DHT22;800;48.824;9.346;2023-03-31T19:02:29;14.70;60.70
1614;DHT22;800;48.824;9.346;2023-03-31T19:04:55;14.70;60.60
1614;DHT22;800;48.824;9.346;2023-03-31T19:07:21;14.60;60.70
1614;DHT22;800;48.824;9.346;2023-03-31T19:09:46;14.50;60.90
1614;DHT22;800;48.824;9.346;2023-03-31T19:12:12;14.40;60.80
1614;DHT22;800;48.824;9.346;2023-03-31T19:14:38;14.20;61.20
1614;DHT22;800;48.824;9.346;2023-03-31T19:17:05;14.30;62.20
1614;DHT22;800;48.824;9.346;2023-03-31T19:19:30;14.20;61.60
1614;DHT22;800;48.824;9.346;2023-03-31T19:21:56;14.30;60.80
1614;DHT22;800;48.824;9.346;2023-03-31T19:24:22;14.10;61.10
1614;DHT22;800;48.824;9.346;2023-03-31T19:26:49;14.20;61.80
1614;DHT22;800;48.824;9.346;2023-03-31T19:29:15;14.20;61.50
1614;DHT22;800;48.824;9.346;2023-03-31T19:31:40;14.20;61.60